Time;durP1;ratioP1;P1;durP2;ratioP2;P2;SDS_P1;SDS_P2;PMS_P1;PMS_P2;Temp;Humidity;BMP_temperature;BMP_pressure;BME280_temperature;BME280_humidity;BME280_pressure;Samples;Min_cycle;Max_cycle;Signal;HPM_P1;HPM_P2
2022/12/14 00:00:48;;;;;;;3.03;2.17;;;;;;;;;;5087699;28;20025;-45
2022/12/14 00:03:14;;;;;;;3.45;2.22;;;;;;;;;;5087810;28;20506;-49
2022/12/14 00:05:40;;;;;;;3.33;2.20;;;;;;;;;;5073210;28;20020;-46
2022/12/14 00:08:07;;;;;;;2.72;2.13;;;;;;;;;;5089180;28;20085;-45
2022/12/14 00:10:34;;;;;;;2.83;1.92;;;;;;;;;;5104181;28;20135;-48
2022/12/14 00:13:01;;;;;;;3.58;2.35;;;;;;;;;;5108577;28;20031;-45
2022/12/14 00:15:27;;;;;;;2.67;1.85;;;;;;;;;;5109761;28;20055;-48
2022/12/14 00:17:53;;;;;;;2.47;2.15;;;;;;;;;;5108248;28;20020;-49
2022/12/14 00:20:19;;;;;;;2.53;1.90;;;;;;;;;;5108189;28;20034;-48
2022/12/14 00:22:45;;;;;;;2.47;1.80;;;;;;;;;;5109189;28;20036;-46
2022/12/14 00:25:11;;;;;;;2.35;1.85;;;;;;;;;;5109812;28;20016;-47
2022/12/14 00:27:43;;;;;;;2.70;1.83;;;;;;;;;;5109352;28;20420;-45
2022/12/14 00:30:11;;;;;;;3.25;2.08;;;;;;;;;;5109428;28;20024;-46
2022/12/14 00:32:37;;;;;;;3.00;2.00;;;;;;;;;;5108795;28;20103;-46
2022/12/14 00:35:03;;;;;;;3.22;2.20;;;;;;;;;;5092080;28;20028;-47
2022/12/14 00:37:29;;;;;;;3.05;2.03;;;;;;;;;;5108132;28;20111;-44
2022/12/14 00:39:55;;;;;;;3.95;2.72;;;;;;;;;;5109312;28;20107;-46
2022/12/14 00:42:21;;;;;;;3.08;2.50;;;;;;;;;;5108771;28;20026;-46
2022/12/14 00:44:47;;;;;;;2.97;2.30;;;;;;;;;;5109014;28;20019;-45
2022/12/14 00:47:13;;;;;;;3.00;1.95;;;;;;;;;;5108746;28;20100;-46
2022/12/14 00:49:39;;;;;;;3.63;2.45;;;;;;;;;;5093378;28;20391;-45
2022/12/14 00:52:05;;;;;;;3.45;2.40;;;;;;;;;;5088294;28;20093;-47
2022/12/14 00:54:31;;;;;;;4.28;2.72;;;;;;;;;;5089085;28;20120;-47
2022/12/14 00:56:58;;;;;;;2.88;2.28;;;;;;;;;;5088684;28;20099;-46
2022/12/14 00:59:24;;;;;;;4.15;2.38;;;;;;;;;;5088437;28;20081;-48
2022/12/14 01:01:50;;;;;;;2.38;1.92;;;;;;;;;;5087862;28;20023;-46
2022/12/14 01:04:16;;;;;;;1.95;1.75;;;;;;;;;;5088255;28;20047;-45
2022/12/14 06:11:13;;;;;;;6.60;4.40;;;;;;;;;;5095496;28;20061;-46
2022/12/14 06:13:40;;;;;;;7.75;5.00;;;;;;;;;;5087221;28;20090;-47
2022/12/14 06:16:14;;;;;;;6.20;4.13;;;;;;;;;;5086256;28;20028;-45
2022/12/14 06:18:40;;;;;;;7.13;4.50;;;;;;;;;;5087382;28;20098;-46
2022/12/14 06:21:06;;;;;;;7.35;4.95;;;;;;;;;;5087230;28;20024;-47
2022/12/14 06:23:32;;;;;;;8.10;4.85;;;;;;;;;;5070253;28;20514;-46
2022/12/14 06:26:00;;;;;;;7.32;4.65;;;;;;;;;;5067187;28;20032;-48
2022/12/14 06:28:26;;;;;;;10.07;6.18;;;;;;;;;;5066720;28;20507;-46
2022/12/14 06:30:52;;;;;;;12.35;6.82;;;;;;;;;;5066874;28;20079;-48
2022/12/14 06:33:18;;;;;;;11.75;6.80;;;;;;;;;;5067068;28;20461;-47
2022/12/14 06:35:45;;;;;;;11.27;6.50;;;;;;;;;;5066610;28;20029;-45
2022/12/14 06:38:14;;;;;;;10.13;6.53;;;;;;;;;;5083142;28;20024;-48
2022/12/14 06:40:40;;;;;;;8.57;5.32;;;;;;;;;;5085176;28;20111;-49
2022/12/14 06:43:06;;;;;;;8.40;5.20;;;;;;;;;;5072050;28;20119;-48
2022/12/14 06:45:32;;;;;;;6.60;4.68;;;;;;;;;;5066623;28;20107;-46
2022/12/14 06:47:59;;;;;;;8.95;5.22;;;;;;;;;;5066325;28;20056;-49
2022/12/14 06:50:28;;;;;;;8.23;5.38;;;;;;;;;;5065996;28;20036;-50
2022/12/14 06:52:54;;;;;;;8.98;5.25;;;;;;;;;;5075333;28;20083;-45
2022/12/14 06:55:21;;;;;;;8.98;5.13;;;;;;;;;;5073217;28;20511;-48
2022/12/14 06:57:49;;;;;;;7.55;4.95;;;;;;;;;;5066415;28;20032;-47
2022/12/14 07:00:15;;;;;;;9.07;5.40;;;;;;;;;;5066688;28;20435;-46
2022/12/14 07:02:41;;;;;;;7.55;4.65;;;;;;;;;;5067161;28;20035;-47
2022/12/14 07:05:07;;;;;;;7.80;5.32;;;;;;;;;;5089926;28;20028;-46
2022/12/14 07:07:33;;;;;;;7.95;4.97;;;;;;;;;;5087567;28;20047;-47
2022/12/14 07:09:59;;;;;;;8.43;5.15;;;;;;;;;;5069301;28;20497;-45
2022/12/14 07:12:27;;;;;;;8.07;5.00;;;;;;;;;;5097849;28;20420;-46
2022/12/14 07:14:54;;;;;;;8.60;5.15;;;;;;;;;;5108010;28;20032;-45
2022/12/14 07:17:20;;;;;;;7.68;4.82;;;;;;;;;;5108185;28;20020;-46
2022/12/14 07:19:46;;;;;;;5.97;4.20;;;;;;;;;;5107035;28;20031;-49
2022/12/14 07:22:13;;;;;;;6.85;4.90;;;;;;;;;;5105740;28;20054;-48
2022/12/14 07:24:39;;;;;;;6.65;4.57;;;;;;;;;;5106874;28;20024;-46
2022/12/14 07:27:05;;;;;;;9.10;5.85;;;;;;;;;;5107604;28;20119;-46
2022/12/14 07:29:31;;;;;;;11.05;6.22;;;;;;;;;;5111665;28;20027;-46
2022/12/14 07:31:57;;;;;;;11.15;6.13;;;;;;;;;;5109916;28;20027;-48
2022/12/14 07:34:23;;;;;;;10.13;6.72;;;;;;;;;;5109422;28;20754;-46
2022/12/14 07:36:50;;;;;;;9.20;5.55;;;;;;;;;;5108803;28;20081;-47
2022/12/14 07:39:16;;;;;;;9.23;5.38;;;;;;;;;;5102525;28;20038;-47
2022/12/14 07:41:44;;;;;;;9.02;5.38;;;;;;;;;;5100550;27;20027;-45
2022/12/14 07:44:10;;;;;;;7.45;5.05;;;;;;;;;;5100751;28;20035;-45
2022/12/14 07:46:36;;;;;;;7.07;4.75;;;;;;;;;;5110248;28;20427;-45
2022/12/14 07:49:02;;;;;;;7.57;4.90;;;;;;;;;;5111273;28;20082;-50
2022/12/14 07:51:30;;;;;;;6.63;4.22;;;;;;;;;;5109935;28;20091;-45
2022/12/14 07:53:56;;;;;;;7.10;4.47;;;;;;;;;;5104357;28;20122;-46
2022/12/14 07:56:24;;;;;;;7.13;4.45;;;;;;;;;;5091788;28;20597;-46
2022/12/14 07:58:50;;;;;;;5.07;3.65;;;;;;;;;;5098373;28;20126;-49
2022/12/14 08:01:21;;;;;;;4.18;3.30;;;;;;;;;;5108482;28;20028;-48
2022/12/14 08:03:48;;;;;;;5.30;3.53;;;;;;;;;;5110756;28;20034;-47
2022/12/14 08:06:15;;;;;;;4.50;2.92;;;;;;;;;;5110039;28;20070;-51
2022/12/14 08:08:41;;;;;;;3.65;2.40;;;;;;;;;;5111033;28;20490;-47
2022/12/14 08:11:08;;;;;;;4.75;3.13;;;;;;;;;;5110999;28;20172;-47
2022/12/14 08:13:34;;;;;;;5.43;3.80;;;;;;;;;;5110672;28;20131;-50
2022/12/14 08:16:04;;;;;;;5.95;4.07;;;;;;;;;;5110919;28;20092;-46
2022/12/14 08:18:32;;;;;;;7.05;4.47;;;;;;;;;;5103740;28;20047;-48
2022/12/14 08:20:58;;;;;;;6.93;4.63;;;;;;;;;;5110998;28;20410;-49
2022/12/14 08:23:25;;;;;;;5.80;3.95;;;;;;;;;;5109625;28;20027;-48
2022/12/14 08:25:54;;;;;;;6.25;3.80;;;;;;;;;;5090451;28;20509;-50
2022/12/14 08:28:21;;;;;;;4.20;3.10;;;;;;;;;;5099978;28;20394;-49
2022/12/14 08:30:47;;;;;;;5.57;3.30;;;;;;;;;;5108888;28;20068;-47
2022/12/14 08:33:13;;;;;;;5.47;3.70;;;;;;;;;;5109274;28;20472;-49
2022/12/14 08:35:39;;;;;;;5.68;3.78;;;;;;;;;;5108705;28;20323;-47
2022/12/14 08:38:05;;;;;;;7.28;4.75;;;;;;;;;;5109081;28;20490;-48
2022/12/14 08:40:35;;;;;;;6.80;4.55;;;;;;;;;;5108566;28;20028;-48
2022/12/14 08:43:01;;;;;;;6.15;4.13;;;;;;;;;;5108939;28;20024;-48
2022/12/14 08:45:28;;;;;;;5.93;4.20;;;;;;;;;;5109055;28;20059;-48
2022/12/14 08:47:57;;;;;;;7.13;5.10;;;;;;;;;;5108915;28;20099;-48
2022/12/14 08:50:24;;;;;;;4.97;3.70;;;;;;;;;;5108753;28;20851;-46
2022/12/14 08:52:51;;;;;;;6.28;3.58;;;;;;;;;;5108863;28;20028;-47
2022/12/14 08:55:17;;;;;;;4.07;2.83;;;;;;;;;;5108663;28;20107;-50
2022/12/14 08:57:44;;;;;;;4.38;2.78;;;;;;;;;;5108419;28;20035;-47
2022/12/14 09:00:10;;;;;;;3.22;2.53;;;;;;;;;;5108758;28;20417;-47
2022/12/14 09:02:36;;;;;;;2.90;2.10;;;;;;;;;;5089697;28;20024;-49
2022/12/14 09:05:02;;;;;;;2.78;2.10;;;;;;;;;;5088240;28;20031;-45
2022/12/14 09:07:29;;;;;;;2.67;1.80;;;;;;;;;;5088184;28;20024;-48
2022/12/14 09:09:55;;;;;;;2.85;1.98;;;;;;;;;;5088092;28;20491;-48
2022/12/14 09:12:22;;;;;;;2.58;1.90;;;;;;;;;;5098440;28;20498;-48
2022/12/14 09:14:48;;;;;;;2.92;1.90;;;;;;;;;;5108755;28;20398;-49
2022/12/14 09:17:14;;;;;;;1.98;1.55;;;;;;;;;;5108424;28;20038;-46
2022/12/14 09:19:40;;;;;;;1.60;1.17;;;;;;;;;;5108100;28;20038;-47
2022/12/14 09:22:06;;;;;;;1.88;1.40;;;;;;;;;;5108189;28;20347;-47
2022/12/14 09:24:33;;;;;;;2.28;1.23;;;;;;;;;;5108179;28;20348;-46
2022/12/14 09:27:00;;;;;;;1.63;1.20;;;;;;;;;;5107918;28;20486;-49
2022/12/14 09:29:27;;;;;;;2.33;1.38;;;;;;;;;;5095594;28;20024;-46
2022/12/14 09:31:53;;;;;;;2.50;1.50;;;;;;;;;;5109241;28;20205;-50
2022/12/14 09:34:20;;;;;;;2.35;1.67;;;;;;;;;;5099598;28;20086;-47
2022/12/14 09:36:46;;;;;;;3.10;1.92;;;;;;;;;;5089475;28;20119;-49
2022/12/14 09:39:13;;;;;;;2.20;1.70;;;;;;;;;;5108095;28;20031;-47
2022/12/14 09:41:39;;;;;;;3.20;1.60;;;;;;;;;;5091234;28;20039;-47
2022/12/14 09:44:05;;;;;;;2.42;1.40;;;;;;;;;;5098725;28;20481;-49
2022/12/14 09:46:31;;;;;;;2.65;1.65;;;;;;;;;;5093334;28;20063;-49
2022/12/14 09:49:00;;;;;;;1.77;1.33;;;;;;;;;;5107812;28;20111;-50
2022/12/14 09:51:30;;;;;;;2.33;1.55;;;;;;;;;;5107589;28;20055;-47
2022/12/14 09:54:02;;;;;;;1.42;1.20;;;;;;;;;;5107470;28;20038;-47
2022/12/14 09:56:29;;;;;;;1.77;1.10;;;;;;;;;;5104760;28;20019;-49
2022/12/14 09:58:56;;;;;;;1.05;0.88;;;;;;;;;;5096228;28;20027;-48
2022/12/14 10:01:22;;;;;;;1.23;1.13;;;;;;;;;;5102411;28;20022;-48
2022/12/14 10:03:48;;;;;;;0.85;0.85;;;;;;;;;;5103143;28;20036;-49
2022/12/14 10:06:24;;;;;;;1.38;1.10;;;;;;;;;;5087841;28;20024;-46
2022/12/14 10:08:58;;;;;;;1.30;1.00;;;;;;;;;;5098555;28;20039;-49
2022/12/14 10:11:47;;;;;;;1.10;1.00;;;;;;;;;;5090170;28;20130;-46
2022/12/14 10:14:29;;;;;;;1.10;0.90;;;;;;;;;;5093151;28;20047;-48
2022/12/14 10:17:04;;;;;;;1.52;1.20;;;;;;;;;;5106641;28;20421;-50
2022/12/14 10:19:31;;;;;;;2.28;1.20;;;;;;;;;;5107114;28;20089;-46
2022/12/14 10:22:04;;;;;;;1.48;1.13;;;;;;;;;;5107274;28;20038;-46
2022/12/14 10:24:34;;;;;;;1.63;1.05;;;;;;;;;;5107328;28;20057;-50
2022/12/14 10:27:00;;;;;;;1.33;1.10;;;;;;;;;;5107295;28;20472;-47
2022/12/14 10:29:26;;;;;;;1.27;0.98;;;;;;;;;;5106944;28;20032;-47
2022/12/14 10:32:05;;;;;;;1.38;1.00;;;;;;;;;;5106726;28;20027;-47
2022/12/14 10:34:32;;;;;;;1.40;1.05;;;;;;;;;;5105777;28;20110;-47
2022/12/14 10:37:05;;;;;;;1.48;1.13;;;;;;;;;;5107097;28;20046;-48
2022/12/14 10:39:42;;;;;;;2.63;1.40;;;;;;;;;;5087570;28;20035;-49
2022/12/14 10:42:15;;;;;;;2.33;1.35;;;;;;;;;;5086062;28;20028;-47
2022/12/14 10:44:59;;;;;;;2.58;1.70;;;;;;;;;;5086490;28;20445;-48
2022/12/14 10:47:28;;;;;;;2.25;1.33;;;;;;;;;;5086229;28;20024;-50
2022/12/14 10:49:59;;;;;;;2.30;1.52;;;;;;;;;;5087156;28;20031;-48
2022/12/14 10:52:27;;;;;;;2.70;1.40;;;;;;;;;;5102005;28;20115;-48
2022/12/14 10:54:59;;;;;;;2.22;1.60;;;;;;;;;;5106782;28;20042;-47
2022/12/14 10:57:26;;;;;;;2.00;1.42;;;;;;;;;;5107122;28;20085;-50
2022/12/14 10:59:53;;;;;;;1.40;1.30;;;;;;;;;;5106994;28;20027;-46
2022/12/14 11:02:23;;;;;;;1.88;1.35;;;;;;;;;;5107349;28;20149;-49
2022/12/14 11:04:49;;;;;;;2.15;1.60;;;;;;;;;;5108266;28;20451;-48
2022/12/14 11:07:17;;;;;;;2.15;1.48;;;;;;;;;;5109382;27;20077;-47
2022/12/14 11:09:43;;;;;;;2.13;1.52;;;;;;;;;;5112578;28;20505;-46
2022/12/14 11:12:12;;;;;;;1.95;1.02;;;;;;;;;;5107037;28;20472;-46
2022/12/14 11:14:51;;;;;;;1.85;1.55;;;;;;;;;;5106547;28;20035;-51
2022/12/14 11:17:31;;;;;;;2.20;1.70;;;;;;;;;;5111228;28;20227;-50
2022/12/14 11:20:24;;;;;;;2.42;1.50;;;;;;;;;;5111213;28;20035;-49
2022/12/14 11:22:51;;;;;;;1.98;1.50;;;;;;;;;;5107256;28;20039;-48
2022/12/14 11:25:29;;;;;;;2.10;1.40;;;;;;;;;;5110965;28;20027;-49
2022/12/14 11:27:56;;;;;;;3.28;1.80;;;;;;;;;;5109672;28;20040;-46
2022/12/14 11:30:22;;;;;;;1.98;1.50;;;;;;;;;;5094059;28;20109;-47
2022/12/14 11:32:48;;;;;;;1.67;1.30;;;;;;;;;;5090607;28;20074;-48
2022/12/14 11:35:16;;;;;;;1.60;1.30;;;;;;;;;;5091369;28;20036;-46
2022/12/14 11:37:43;;;;;;;1.67;1.45;;;;;;;;;;5090004;28;20028;-46
2022/12/14 11:40:25;;;;;;;2.65;1.75;;;;;;;;;;5090336;28;20058;-47
2022/12/14 11:42:58;;;;;;;2.08;1.65;;;;;;;;;;5101880;28;20063;-47
2022/12/14 11:45:24;;;;;;;2.13;1.55;;;;;;;;;;5101254;28;20431;-49
2022/12/14 11:48:29;;;;;;;2.53;1.90;;;;;;;;;;5110348;28;20080;-49
2022/12/14 11:50:55;;;;;;;;;;;;;;;;;;5006775;28;20030;-47
2022/12/14 11:56:25;;;;;;;2.88;1.77;;;;;;;;;;5068433;28;20042;-48
2022/12/14 11:58:52;;;;;;;2.58;1.80;;;;;;;;;;5089278;28;20028;-47
2022/12/14 12:01:23;;;;;;;2.30;1.63;;;;;;;;;;5092678;28;20039;-51
2022/12/14 12:03:51;;;;;;;2.10;1.75;;;;;;;;;;5089643;28;20480;-51
2022/12/14 12:06:27;;;;;;;3.63;2.17;;;;;;;;;;5089825;28;20467;-48
2022/12/14 12:09:08;;;;;;;2.63;2.17;;;;;;;;;;5103554;28;20019;-48
2022/12/14 12:11:34;;;;;;;3.25;2.15;;;;;;;;;;5107180;28;20401;-47
2022/12/14 12:14:06;;;;;;;1.60;1.50;;;;;;;;;;5106798;28;20031;-46
2022/12/14 12:16:36;;;;;;;2.67;1.73;;;;;;;;;;5108837;28;20449;-45
2022/12/14 12:19:06;;;;;;;2.20;2.00;;;;;;;;;;5109032;28;20027;-47
2022/12/14 12:21:35;;;;;;;2.30;1.80;;;;;;;;;;5108390;28;20370;-50
2022/12/14 12:24:20;;;;;;;1.90;1.67;;;;;;;;;;5095778;28;20450;-48
2022/12/14 12:26:56;;;;;;;1.83;1.60;;;;;;;;;;5107572;28;20093;-51
2022/12/14 12:29:22;;;;;;;2.72;2.35;;;;;;;;;;5109830;28;20027;-51
2022/12/14 12:32:00;;;;;;;2.50;2.22;;;;;;;;;;5110821;28;20386;-47
2022/12/14 12:34:37;;;;;;;2.63;2.13;;;;;;;;;;5110052;28;20035;-50
2022/12/14 12:37:08;;;;;;;3.08;2.60;;;;;;;;;;5108412;28;20035;-48
2022/12/14 12:39:36;;;;;;;3.03;2.38;;;;;;;;;;5110164;28;20482;-49
2022/12/14 12:42:11;;;;;;;2.28;1.73;;;;;;;;;;5110308;28;20391;-50
2022/12/14 12:44:46;;;;;;;2.25;1.83;;;;;;;;;;5110466;28;20028;-49
2022/12/14 12:47:29;;;;;;;2.25;1.90;;;;;;;;;;5110187;28;20032;-50
2022/12/14 12:49:59;;;;;;;2.85;1.88;;;;;;;;;;5110364;28;20027;-49
2022/12/14 12:52:28;;;;;;;3.55;1.98;;;;;;;;;;5109901;28;20043;-49
2022/12/14 12:54:54;;;;;;;2.45;1.85;;;;;;;;;;5110218;28;20047;-48
2022/12/14 12:57:54;;;;;;;1.73;1.52;;;;;;;;;;5110220;28;20611;-48
2022/12/14 13:00:24;;;;;;;2.47;1.52;;;;;;;;;;5106505;28;20036;-49
2022/12/14 13:03:00;;;;;;;3.42;2.00;;;;;;;;;;5109036;28;20448;-50
2022/12/14 13:05:28;;;;;;;2.75;1.92;;;;;;;;;;5110640;28;20035;-51
2022/12/14 13:07:59;;;;;;;3.38;1.30;;;;;;;;;;5106847;28;20526;-48
2022/12/14 13:10:29;;;;;;;1.77;1.30;;;;;;;;;;5104023;28;20371;-51
2022/12/14 13:13:03;;;;;;;3.22;2.05;;;;;;;;;;5106317;28;20088;-48
2022/12/14 13:15:31;;;;;;;3.85;2.83;;;;;;;;;;5107188;28;20144;-48
2022/12/14 13:18:14;;;;;;;7.75;4.78;;;;;;;;;;5110565;28;20110;-49
2022/12/14 13:20:40;;;;;;;4.97;3.03;;;;;;;;;;5098861;28;20383;-49
2022/12/14 13:23:06;;;;;;;3.35;2.20;;;;;;;;;;5110043;28;20490;-49
2022/12/14 13:25:50;;;;;;;3.60;1.80;;;;;;;;;;5109845;28;20024;-48
2022/12/14 13:28:23;;;;;;;2.33;1.60;;;;;;;;;;5090258;28;20039;-49
2022/12/14 13:30:51;;;;;;;1.88;1.38;;;;;;;;;;5090077;28;20028;-47
2022/12/14 13:33:28;;;;;;;1.73;1.13;;;;;;;;;;5090158;28;20107;-46
2022/12/14 13:36:00;;;;;;;4.38;1.50;;;;;;;;;;5103111;28;20042;-48
2022/12/14 13:38:35;;;;;;;1.98;1.63;;;;;;;;;;5110019;28;20039;-51
2022/12/14 13:41:01;;;;;;;1.88;1.20;;;;;;;;;;5109283;28;20403;-50
2022/12/14 13:43:46;;;;;;;2.25;1.48;;;;;;;;;;5110093;28;20024;-49
2022/12/14 13:46:23;;;;;;;4.28;1.50;;;;;;;;;;5101720;28;20070;-47
2022/12/14 13:48:51;;;;;;;1.15;0.90;;;;;;;;;;5096149;28;20028;-47
2022/12/14 13:51:40;;;;;;;1.13;1.02;;;;;;;;;;5105301;28;20089;-50
2022/12/14 13:54:17;;;;;;;0.90;0.90;;;;;;;;;;5086642;28;20097;-50
2022/12/14 13:56:44;;;;;;;1.50;1.20;;;;;;;;;;5102612;28;20031;-48
2022/12/14 13:59:23;;;;;;;1.30;1.20;;;;;;;;;;5102004;28;20027;-47
2022/12/14 14:01:49;;;;;;;1.27;0.90;;;;;;;;;;5109947;28;20024;-50
2022/12/14 14:04:23;;;;;;;1.27;1.00;;;;;;;;;;5109587;28;20030;-47
2022/12/14 14:06:50;;;;;;;2.35;1.30;;;;;;;;;;5107359;28;20482;-49
2022/12/14 14:09:26;;;;;;;1.05;0.90;;;;;;;;;;5108349;28;20030;-49
2022/12/14 14:12:10;;;;;;;2.42;1.23;;;;;;;;;;5098119;28;20129;-51
2022/12/14 14:14:54;;;;;;;1.27;1.17;;;;;;;;;;5103330;28;20493;-49
2022/12/14 14:17:25;;;;;;;2.05;1.10;;;;;;;;;;5109293;28;20034;-49
2022/12/14 14:19:55;;;;;;;2.38;1.80;;;;;;;;;;5109232;28;20039;-48
2022/12/14 14:22:26;;;;;;;4.80;3.08;;;;;;;;;;5109087;28;20080;-49
2022/12/14 14:25:05;;;;;;;3.22;2.42;;;;;;;;;;5107563;28;20034;-49
2022/12/14 14:27:36;;;;;;;3.80;1.80;;;;;;;;;;5108084;28;20031;-48
2022/12/14 14:30:03;;;;;;;3.47;1.92;;;;;;;;;;5101738;28;20062;-49
2022/12/14 14:32:37;;;;;;;3.35;1.70;;;;;;;;;;5102088;28;20196;-48
2022/12/14 14:35:05;;;;;;;2.33;1.40;;;;;;;;;;5107916;28;20031;-47
2022/12/14 14:37:32;;;;;;;1.95;1.23;;;;;;;;;;5107535;28;20024;-50
2022/12/14 14:40:04;;;;;;;1.75;1.02;;;;;;;;;;5108861;28;20466;-47
2022/12/14 14:42:33;;;;;;;2.25;1.20;;;;;;;;;;5108854;28;20053;-49
2022/12/14 14:45:00;;;;;;;1.83;1.27;;;;;;;;;;5107547;28;20043;-47
2022/12/14 14:47:32;;;;;;;1.42;1.10;;;;;;;;;;5108042;28;20038;-48
2022/12/14 14:50:13;;;;;;;1.80;1.23;;;;;;;;;;5109133;28;20032;-48
2022/12/14 14:52:39;;;;;;;0.93;0.80;;;;;;;;;;5107343;28;20023;-49
2022/12/14 14:55:25;;;;;;;1.42;1.02;;;;;;;;;;5108996;28;20055;-50
2022/12/14 14:57:55;;;;;;;1.40;0.95;;;;;;;;;;5088595;28;20028;-50
2022/12/14 15:00:24;;;;;;;1.60;1.08;;;;;;;;;;5102555;28;20582;-50
2022/12/14 15:02:52;;;;;;;1.20;1.10;;;;;;;;;;5108764;28;20032;-49
2022/12/14 15:05:22;;;;;;;1.73;1.10;;;;;;;;;;5106667;28;20028;-51
2022/12/14 15:07:48;;;;;;;1.92;1.15;;;;;;;;;;5095695;28;20022;-51
2022/12/14 15:10:30;;;;;;;1.60;1.38;;;;;;;;;;5101015;28;20039;-47
2022/12/14 15:12:58;;;;;;;2.22;1.50;;;;;;;;;;5096393;28;20379;-48
2022/12/14 15:15:44;;;;;;;1.95;1.45;;;;;;;;;;5099459;28;20106;-51
2022/12/14 15:18:16;;;;;;;2.10;1.70;;;;;;;;;;5106951;28;20024;-48
2022/12/14 15:20:50;;;;;;;2.80;1.67;;;;;;;;;;5107549;28;20072;-50
2022/12/14 15:23:16;;;;;;;;;;;;;;;;;;5108102;28;20558;-47
2022/12/14 15:25:42;;;;;;;1.63;1.52;;;;;;;;;;5106048;28;20002;-48
2022/12/14 15:28:17;;;;;;;2.22;1.52;;;;;;;;;;5107520;28;20028;-49
2022/12/14 15:30:46;;;;;;;2.25;1.70;;;;;;;;;;5105990;28;20515;-49
2022/12/14 15:33:20;;;;;;;1.75;1.58;;;;;;;;;;5102574;28;20027;-49
2022/12/14 15:35:46;;;;;;;1.90;1.70;;;;;;;;;;5107232;28;20082;-48
2022/12/14 15:38:32;;;;;;;1.70;1.20;;;;;;;;;;5107288;28;20417;-48
2022/12/14 15:41:00;;;;;;;1.60;1.15;;;;;;;;;;5106271;28;20043;-50
2022/12/14 15:43:27;;;;;;;1.73;1.35;;;;;;;;;;5108516;28;20059;-50
2022/12/14 15:45:55;;;;;;;1.63;1.23;;;;;;;;;;5106181;28;20462;-48
2022/12/14 15:48:23;;;;;;;1.40;1.10;;;;;;;;;;5095761;28;20063;-46
2022/12/14 15:50:53;;;;;;;3.67;2.63;;;;;;;;;;5106768;27;20020;-50
2022/12/14 15:53:30;;;;;;;4.03;1.90;;;;;;;;;;5111811;27;20337;-48
2022/12/14 15:55:58;;;;;;;3.78;2.40;;;;;;;;;;5102714;28;20027;-52
2022/12/14 15:58:35;;;;;;;2.53;1.92;;;;;;;;;;5087388;28;20035;-48
2022/12/14 16:01:18;;;;;;;2.08;1.80;;;;;;;;;;5083874;28;20077;-50
2022/12/14 16:03:45;;;;;;;2.30;1.90;;;;;;;;;;5086382;28;20020;-49
2022/12/14 16:06:11;;;;;;;2.80;1.67;;;;;;;;;;5081923;28;20023;-52
2022/12/14 16:08:39;;;;;;;2.38;1.77;;;;;;;;;;5107344;27;20505;-51
2022/12/14 16:11:09;;;;;;;3.47;1.55;;;;;;;;;;5109515;28;20513;-52
2022/12/14 16:13:39;;;;;;;1.20;1.10;;;;;;;;;;5088198;28;20039;-50
2022/12/14 16:16:07;;;;;;;1.98;1.50;;;;;;;;;;5091064;28;20044;-51
2022/12/14 16:18:33;;;;;;;1.40;1.25;;;;;;;;;;5087183;28;20070;-50
2022/12/14 16:21:02;;;;;;;1.73;1.40;;;;;;;;;;5103330;28;20043;-51
2022/12/14 16:23:35;;;;;;;1.80;1.70;;;;;;;;;;5079008;28;20088;-52
2022/12/14 16:26:21;;;;;;;2.20;1.80;;;;;;;;;;5105125;28;20104;-50
2022/12/14 16:28:47;;;;;;;2.75;1.85;;;;;;;;;;5104261;27;20093;-52
2022/12/14 16:31:13;;;;;;;2.20;1.77;;;;;;;;;;5083167;28;20414;-49
2022/12/14 16:33:41;;;;;;;2.38;2.10;;;;;;;;;;5098046;28;20085;-48
2022/12/14 16:36:18;;;;;;;2.38;1.90;;;;;;;;;;5115849;27;20030;-51
2022/12/14 16:38:54;;;;;;;3.15;2.40;;;;;;;;;;5107279;27;20042;-50
2022/12/14 16:41:33;;;;;;;3.08;2.00;;;;;;;;;;5100349;28;20076;-49
2022/12/14 16:44:00;;;;;;;2.55;1.80;;;;;;;;;;5100266;28;20036;-52
2022/12/14 16:46:26;;;;;;;3.17;2.45;;;;;;;;;;5097815;28;20566;-51
2022/12/14 16:49:28;;;;;;;5.32;3.20;;;;;;;;;;5108624;28;20035;-50
2022/12/14 16:51:58;;;;;;;3.38;2.42;;;;;;;;;;5001637;28;20037;-49
2022/12/14 16:54:26;;;;;;;3.40;2.17;;;;;;;;;;5083198;28;20524;-49
2022/12/14 16:56:57;;;;;;;3.28;2.50;;;;;;;;;;5107118;28;20417;-51
2022/12/14 16:59:49;;;;;;;4.13;2.33;;;;;;;;;;5105115;28;20100;-48
2022/12/14 17:02:23;;;;;;;2.67;2.08;;;;;;;;;;5065947;28;20122;-48
2022/12/14 17:04:49;;;;;;;2.58;1.77;;;;;;;;;;5098736;28;20525;-51
2022/12/14 17:07:15;;;;;;;1.98;1.60;;;;;;;;;;5101366;28;20430;-51
2022/12/14 17:09:42;;;;;;;2.63;2.08;;;;;;;;;;5103425;28;20028;-49
2022/12/14 17:12:13;;;;;;;1.95;1.42;;;;;;;;;;5108092;28;20515;-51
2022/12/14 17:14:39;;;;;;;2.30;1.67;;;;;;;;;;5108043;28;20525;-52
2022/12/14 17:17:06;;;;;;;2.63;1.63;;;;;;;;;;5107987;28;20035;-51
2022/12/14 17:19:35;;;;;;;2.17;1.80;;;;;;;;;;5097819;28;20035;-48
2022/12/14 17:22:02;;;;;;;3.55;2.13;;;;;;;;;;5105242;28;20032;-51
2022/12/14 17:24:29;;;;;;;2.13;1.65;;;;;;;;;;5106197;28;20055;-47
2022/12/14 17:26:55;;;;;;;2.13;1.40;;;;;;;;;;5106730;27;20073;-52
2022/12/14 17:29:23;;;;;;;2.25;1.73;;;;;;;;;;5104863;28;20034;-50
2022/12/14 17:31:51;;;;;;;3.35;2.33;;;;;;;;;;5107314;28;20031;-49
2022/12/14 17:34:17;;;;;;;2.80;1.75;;;;;;;;;;5107168;28;20039;-49
2022/12/14 17:36:44;;;;;;;3.17;1.50;;;;;;;;;;5094696;27;20059;-49
2022/12/14 17:39:10;;;;;;;2.65;1.77;;;;;;;;;;5106382;27;20039;-49
2022/12/14 17:41:37;;;;;;;3.22;2.10;;;;;;;;;;5100094;28;20161;-46
2022/12/14 17:44:04;;;;;;;2.80;2.05;;;;;;;;;;5078829;28;20051;-47
2022/12/14 17:46:30;;;;;;;2.60;1.80;;;;;;;;;;5107065;28;20019;-50
2022/12/14 17:48:56;;;;;;;1.83;1.58;;;;;;;;;;5108981;28;20063;-50
2022/12/14 17:51:22;;;;;;;2.95;1.67;;;;;;;;;;5105704;28;20465;-50
2022/12/14 17:53:48;;;;;;;1.80;1.40;;;;;;;;;;5096976;28;20075;-51
2022/12/14 17:56:14;;;;;;;2.13;1.40;;;;;;;;;;5096285;28;20028;-52
2022/12/14 17:58:44;;;;;;;1.92;1.48;;;;;;;;;;5108061;28;20031;-47
2022/12/14 18:01:12;;;;;;;1.92;1.30;;;;;;;;;;5108054;28;20043;-49
2022/12/14 18:03:38;;;;;;;1.58;1.33;;;;;;;;;;5106186;28;20039;-53
2022/12/14 18:06:04;;;;;;;1.25;0.95;;;;;;;;;;5101141;28;20031;-52
2022/12/14 18:08:30;;;;;;;1.60;1.00;;;;;;;;;;5106028;28;20039;-52
2022/12/14 18:10:58;;;;;;;2.30;1.40;;;;;;;;;;5105493;28;20134;-52
2022/12/14 18:13:25;;;;;;;2.15;1.63;;;;;;;;;;5106891;28;20114;-50
2022/12/14 18:15:52;;;;;;;2.35;1.48;;;;;;;;;;5100063;28;20027;-48
2022/12/14 18:18:19;;;;;;;2.38;1.67;;;;;;;;;;5106883;28;20059;-48
2022/12/14 18:20:48;;;;;;;2.85;2.30;;;;;;;;;;5107372;28;20125;-47
2022/12/14 18:23:14;;;;;;;4.18;3.00;;;;;;;;;;5106897;28;20020;-50
2022/12/14 18:25:42;;;;;;;4.75;3.10;;;;;;;;;;5107318;28;20069;-51
2022/12/14 18:28:10;;;;;;;14.75;8.65;;;;;;;;;;5106959;28;20067;-51
2022/12/14 18:30:37;;;;;;;11.10;6.88;;;;;;;;;;5088000;28;20394;-51
2022/12/14 18:33:03;;;;;;;8.23;4.82;;;;;;;;;;5105067;28;20042;-53
2022/12/14 18:35:31;;;;;;;5.75;4.00;;;;;;;;;;5105841;28;20070;-50
2022/12/14 18:37:57;;;;;;;4.25;3.08;;;;;;;;;;5099451;28;20111;-51
2022/12/14 18:40:24;;;;;;;4.38;2.80;;;;;;;;;;5106591;28;20176;-52
2022/12/14 18:42:51;;;;;;;3.50;2.47;;;;;;;;;;5106948;28;20028;-49
2022/12/14 18:45:21;;;;;;;2.70;1.98;;;;;;;;;;5107525;28;20194;-51
2022/12/14 18:47:47;;;;;;;2.53;1.98;;;;;;;;;;5106459;28;20042;-49
2022/12/14 18:50:15;;;;;;;2.10;1.55;;;;;;;;;;5106696;28;20036;-50
2022/12/14 18:52:41;;;;;;;2.25;1.70;;;;;;;;;;5107251;28;20028;-49
2022/12/14 18:55:15;;;;;;;2.47;1.65;;;;;;;;;;5106824;28;20024;-48
2022/12/14 18:57:41;;;;;;;2.35;1.83;;;;;;;;;;5088725;28;20051;-47
2022/12/14 19:00:11;;;;;;;2.95;2.00;;;;;;;;;;5106522;28;20052;-50
2022/12/14 19:02:37;;;;;;;1.65;1.52;;;;;;;;;;5105529;28;20058;-48
2022/12/14 19:05:03;;;;;;;3.00;2.00;;;;;;;;;;5094337;28;20031;-51
2022/12/14 19:07:32;;;;;;;3.45;2.03;;;;;;;;;;5106070;28;20024;-52
2022/12/14 19:09:59;;;;;;;2.83;1.80;;;;;;;;;;5086041;28;20055;-52
2022/12/14 19:12:25;;;;;;;1.90;1.60;;;;;;;;;;5087219;28;20935;-49
2022/12/14 19:14:51;;;;;;;3.22;1.50;;;;;;;;;;5107399;28;20096;-52
2022/12/14 19:17:17;;;;;;;2.17;1.77;;;;;;;;;;5103307;28;20654;-52
2022/12/14 19:19:43;;;;;;;2.50;1.65;;;;;;;;;;5084810;28;20048;-51
2022/12/14 19:22:09;;;;;;;1.98;1.77;;;;;;;;;;5082634;28;20027;-51
2022/12/14 19:24:35;;;;;;;2.83;1.73;;;;;;;;;;5084111;28;20032;-51
2022/12/14 19:27:02;;;;;;;2.35;1.75;;;;;;;;;;5097760;28;20028;-49
2022/12/14 19:29:29;;;;;;;2.35;1.58;;;;;;;;;;5075161;28;20027;-48
2022/12/14 19:31:55;;;;;;;1.80;1.40;;;;;;;;;;5086704;28;20027;-49
2022/12/14 19:34:21;;;;;;;1.58;1.42;;;;;;;;;;5106929;28;20061;-49
2022/12/14 19:36:47;;;;;;;2.35;1.70;;;;;;;;;;5108422;28;20081;-48
2022/12/14 19:39:13;;;;;;;2.00;1.40;;;;;;;;;;5106465;28;20124;-50
2022/12/14 19:41:39;;;;;;;1.67;1.30;;;;;;;;;;5073766;28;20510;-48
2022/12/14 19:44:05;;;;;;;1.27;1.17;;;;;;;;;;5098069;28;20402;-53
2022/12/14 19:46:31;;;;;;;2.40;1.63;;;;;;;;;;5085155;28;20023;-48
2022/12/14 19:48:58;;;;;;;1.80;1.20;;;;;;;;;;5079978;28;20138;-51
2022/12/14 19:51:24;;;;;;;1.98;1.52;;;;;;;;;;5069824;28;20519;-48
2022/12/14 19:53:51;;;;;;;2.92;1.98;;;;;;;;;;5099935;28;20463;-51
2022/12/14 19:56:18;;;;;;;2.28;1.60;;;;;;;;;;5070708;28;20111;-51
2022/12/14 19:58:46;;;;;;;2.80;2.03;;;;;;;;;;5087360;28;20624;-52
2022/12/14 20:01:13;;;;;;;2.42;1.65;;;;;;;;;;5089864;28;20024;-51
2022/12/14 20:03:39;;;;;;;2.33;1.90;;;;;;;;;;5090852;28;20020;-51